createdAt,value
2023-02-14T00:01:08.568Z,7.00
2023-02-14T00:03:35.270Z,6.90
2023-02-14T00:06:06.149Z,7.00
2023-02-14T00:08:32.820Z,7.00
2023-02-14T00:10:59.804Z,6.50
2023-02-14T00:13:26.739Z,6.90
2023-02-14T00:15:53.892Z,6.90
2023-02-14T00:18:21.553Z,6.90
2023-02-14T00:20:48.228Z,6.90
2023-02-14T00:23:14.894Z,6.90
2023-02-14T00:25:41.572Z,7.00
2023-02-14T00:28:08.197Z,6.90
2023-02-14T00:30:35.304Z,7.00
2023-02-14T00:33:02.082Z,6.90
2023-02-14T00:35:29.448Z,6.90
2023-02-14T00:37:56.051Z,6.90
2023-02-14T00:40:22.727Z,6.90
2023-02-14T00:42:49.341Z,6.90
2023-02-14T00:45:18.370Z,7.10
2023-02-14T00:47:44.977Z,6.90
2023-02-14T00:50:11.701Z,6.90
2023-02-14T00:52:39.249Z,6.90
2023-02-14T00:55:06.344Z,6.80
2023-02-14T00:57:32.962Z,6.80
2023-02-14T00:59:59.580Z,6.80
2023-02-14T01:02:26.278Z,6.70
2023-02-14T01:04:52.966Z,6.80
2023-02-14T01:07:21.529Z,6.70
2023-02-14T01:09:48.899Z,6.70
2023-02-14T01:12:15.536Z,6.60
2023-02-14T01:14:42.151Z,6.80
2023-02-14T01:17:08.820Z,6.80
2023-02-14T01:19:36.022Z,6.90
2023-02-14T01:22:02.899Z,6.80
2023-02-14T01:24:30.501Z,6.80
2023-02-14T01:27:56.093Z,6.80
2023-02-14T01:30:23.760Z,6.70
2023-02-14T01:32:50.984Z,6.70
2023-02-14T01:35:17.752Z,6.60
2023-02-14T01:37:44.517Z,6.70
2023-02-14T01:40:12.980Z,6.80
2023-02-14T01:42:39.671Z,6.70
2023-02-14T01:45:14.431Z,6.70
2023-02-14T01:47:43.905Z,6.80
2023-02-14T01:50:14.322Z,7.00
2023-02-14T01:52:46.330Z,6.70
2023-02-14T01:55:16.954Z,6.70
2023-02-14T01:57:46.575Z,6.80
2023-02-14T02:00:32.842Z,6.70
2023-02-14T02:03:01.139Z,6.70
2023-02-14T02:05:28.212Z,6.80
2023-02-14T02:07:58.696Z,6.70
2023-02-14T02:10:25.528Z,6.80
2023-02-14T02:12:54.029Z,6.70
2023-02-14T02:15:25.121Z,6.80
2023-02-14T02:18:01.918Z,6.70
2023-02-14T02:21:06.207Z,6.70
2023-02-14T02:24:17.343Z,6.70
2023-02-14T02:27:22.621Z,6.40
2023-02-14T02:30:22.148Z,6.70
2023-02-14T02:33:31.619Z,6.80
2023-02-14T02:36:15.355Z,6.60
2023-02-14T02:38:55.190Z,6.70
2023-02-14T02:41:31.598Z,6.70
2023-02-14T02:44:10.888Z,6.70
2023-02-14T02:46:47.358Z,6.60
2023-02-14T02:49:42.094Z,6.60
2023-02-14T02:52:34.848Z,6.60
2023-02-14T02:55:06.105Z,6.60
2023-02-14T02:57:36.996Z,6.70
2023-02-14T03:00:07.000Z,6.60
2023-02-14T03:02:57.732Z,6.50
2023-02-14T03:05:24.881Z,6.50
2023-02-14T03:07:52.561Z,6.60
2023-02-14T03:10:21.150Z,6.60
2023-02-14T03:13:32.535Z,6.70
2023-02-14T03:16:29.864Z,6.70
2023-02-14T03:19:21.415Z,6.60
2023-02-14T03:21:54.508Z,6.70
2023-02-14T03:24:27.789Z,6.70
2023-02-14T03:27:01.508Z,6.60
2023-02-14T03:29:36.269Z,6.60
2023-02-14T03:32:10.955Z,6.60
2023-02-14T03:34:47.669Z,6.60
2023-02-14T03:37:18.931Z,6.70
2023-02-14T03:39:52.621Z,6.60
2023-02-14T03:42:24.637Z,6.40
2023-02-14T03:44:54.436Z,6.60
2023-02-14T03:47:24.071Z,6.40
2023-02-14T03:49:54.913Z,6.60
2023-02-14T03:52:24.327Z,6.60
2023-02-14T03:54:56.257Z,6.60
2023-02-14T03:57:26.846Z,6.70
2023-02-14T03:59:54.723Z,6.60
2023-02-14T04:02:26.778Z,6.60
2023-02-14T04:04:55.223Z,6.60
2023-02-14T04:07:23.495Z,6.60
2023-02-14T04:09:51.391Z,6.60
2023-02-14T04:12:26.516Z,6.50
2023-02-14T04:14:59.152Z,6.50
2023-02-14T04:17:43.998Z,6.60
2023-02-14T04:20:10.923Z,6.60
2023-02-14T04:22:37.541Z,6.60
2023-02-14T04:25:05.402Z,6.60
2023-02-14T04:27:32.045Z,6.50
2023-02-14T04:29:58.711Z,6.50
2023-02-14T04:32:25.459Z,6.50
2023-02-14T04:34:52.157Z,6.50
2023-02-14T04:37:19.884Z,6.50
2023-02-14T04:39:46.510Z,6.50
2023-02-14T04:42:14.212Z,6.50
2023-02-14T04:44:41.062Z,6.50
2023-02-14T04:47:08.655Z,6.50
2023-02-14T04:49:35.801Z,6.50
2023-02-14T04:52:02.767Z,6.50
2023-02-14T04:54:29.605Z,6.50
2023-02-14T04:56:56.337Z,6.50
2023-02-14T04:59:25.062Z,6.50
2023-02-14T05:01:51.939Z,6.40
2023-02-14T05:04:18.776Z,6.50
2023-02-14T05:06:45.376Z,6.50
2023-02-14T05:09:12.019Z,6.60
2023-02-14T05:11:38.697Z,6.40
2023-02-14T05:14:05.543Z,6.40
2023-02-14T05:16:33.077Z,6.40
2023-02-14T05:18:59.906Z,6.40
2023-02-14T05:21:27.770Z,6.60
2023-02-14T05:23:54.436Z,6.40
2023-02-14T05:26:21.149Z,6.50
2023-02-14T05:28:47.783Z,6.40
2023-02-14T05:31:14.466Z,6.40
2023-02-14T05:33:41.822Z,6.40
2023-02-14T05:36:08.547Z,6.40
2023-02-14T05:38:35.215Z,6.40
2023-02-14T05:41:02.365Z,6.40
2023-02-14T05:43:29.939Z,6.40
2023-02-14T05:45:56.952Z,6.40
2023-02-14T05:48:23.824Z,6.50
2023-02-14T05:50:51.157Z,6.50
2023-02-14T05:53:17.868Z,6.40
2023-02-14T05:55:44.542Z,6.30
2023-02-14T05:58:11.907Z,6.30
2023-02-14T06:00:40.942Z,6.30
2023-02-14T06:03:07.980Z,6.30
2023-02-14T06:05:34.616Z,6.30
2023-02-14T06:08:01.894Z,6.40
2023-02-14T06:10:28.941Z,6.40
2023-02-14T06:12:55.718Z,6.40
2023-02-14T06:15:22.885Z,6.20
2023-02-14T06:17:53.570Z,6.40
2023-02-14T06:20:20.838Z,6.40
2023-02-14T06:22:47.541Z,6.40
2023-02-14T06:25:14.891Z,6.40
2023-02-14T06:27:41.581Z,6.40
2023-02-14T06:30:09.431Z,6.40
2023-02-14T06:32:36.454Z,6.70
2023-02-14T06:35:03.523Z,6.50
2023-02-14T06:37:30.344Z,6.50
2023-02-14T06:39:57.042Z,6.60
2023-02-14T06:42:24.369Z,6.30
2023-02-14T06:44:51.247Z,6.50
2023-02-14T06:47:17.877Z,6.40
2023-02-14T06:49:44.528Z,6.50
2023-02-14T06:52:11.243Z,6.50
2023-02-14T06:57:04.774Z,6.90
2023-02-14T06:59:32.082Z,6.50
2023-02-14T07:01:58.693Z,6.90
2023-02-14T07:04:25.380Z,6.70
2023-02-14T07:06:51.996Z,6.90
2023-02-14T07:14:13.328Z,7.00
2023-02-14T07:16:40.752Z,6.80
2023-02-14T07:19:07.388Z,6.20
2023-02-14T07:24:01.020Z,6.80
2023-02-14T07:26:27.671Z,6.70
2023-02-14T07:28:54.280Z,6.80
2023-02-14T07:31:22.786Z,6.80
2023-02-14T07:33:50.542Z,6.60
2023-02-14T07:36:17.572Z,6.80
2023-02-14T07:38:44.323Z,6.80
2023-02-14T07:41:10.989Z,6.80
2023-02-14T07:43:38.933Z,6.80
2023-02-14T07:46:06.147Z,7.00
2023-02-14T07:48:34.363Z,6.90
2023-02-14T07:51:02.942Z,6.80
2023-02-14T07:53:29.856Z,6.80
2023-02-14T07:55:56.660Z,6.90
2023-02-14T07:58:23.408Z,6.90
2023-02-14T08:00:50.479Z,6.50
2023-02-14T08:03:17.135Z,7.10
2023-02-14T08:05:45.008Z,7.00
2023-02-14T08:08:13.375Z,7.00
2023-02-14T08:10:40.127Z,7.10
2023-02-14T08:13:06.782Z,7.10
2023-02-14T08:15:51.869Z,6.80
2023-02-14T08:18:19.440Z,7.10
2023-02-14T08:20:48.068Z,7.20
2023-02-14T08:23:16.076Z,7.20
2023-02-14T08:25:42.726Z,7.00
2023-02-14T08:28:09.933Z,7.20
2023-02-14T08:30:37.591Z,7.10
2023-02-14T08:33:04.482Z,7.30
2023-02-14T08:35:31.148Z,7.30
2023-02-14T08:37:57.830Z,7.40
2023-02-14T08:40:25.321Z,7.30
2023-02-14T08:42:52.095Z,7.40
2023-02-14T08:45:19.008Z,7.30
2023-02-14T08:47:45.885Z,7.20
2023-02-14T08:50:14.995Z,7.30
2023-02-14T08:52:43.061Z,7.30
2023-02-14T08:55:10.176Z,7.50
2023-02-14T08:57:37.524Z,7.40
2023-02-14T09:00:04.961Z,7.30
2023-02-14T09:02:31.829Z,7.30
2023-02-14T09:04:58.487Z,7.30
2023-02-14T09:07:25.408Z,7.40
2023-02-14T09:09:52.093Z,7.50
2023-02-14T09:12:18.809Z,7.50
2023-02-14T09:14:49.742Z,7.90
2023-02-14T09:17:16.775Z,7.60
2023-02-14T09:19:43.872Z,7.70
2023-02-14T09:22:11.337Z,7.70
2023-02-14T09:24:39.539Z,7.70
2023-02-14T09:27:07.017Z,7.90
2023-02-14T09:29:33.969Z,7.80
2023-02-14T09:32:02.040Z,7.80
2023-02-14T09:34:29.604Z,7.90
2023-02-14T09:36:56.331Z,7.90
2023-02-14T09:39:27.070Z,8.00
2023-02-14T09:42:07.508Z,8.00
2023-02-14T09:44:38.282Z,7.90
2023-02-14T09:47:11.867Z,7.90
2023-02-14T09:49:39.728Z,7.40
2023-02-14T09:52:09.607Z,8.00
2023-02-14T09:54:37.486Z,8.00
2023-02-14T09:57:13.551Z,8.10
2023-02-14T09:59:46.905Z,8.10
2023-02-14T10:02:36.220Z,8.00
2023-02-14T10:05:10.758Z,7.70
2023-02-14T10:07:49.577Z,7.70
2023-02-14T10:10:23.884Z,7.90
2023-02-14T10:12:56.367Z,7.80
2023-02-14T10:15:27.682Z,7.80
2023-02-14T10:17:58.500Z,7.80
2023-02-14T10:20:29.781Z,7.90
2023-02-14T10:23:03.746Z,8.00
2023-02-14T10:25:38.705Z,8.10
2023-02-14T10:28:08.923Z,8.20
2023-02-14T10:30:38.560Z,8.20
2023-02-14T10:33:15.567Z,8.20
2023-02-14T10:35:46.240Z,8.30
2023-02-14T10:38:22.204Z,8.30
2023-02-14T10:41:13.732Z,8.50
2023-02-14T10:43:50.565Z,8.40
2023-02-14T10:46:27.110Z,8.60
2023-02-14T10:49:00.319Z,8.40
2023-02-14T10:51:34.134Z,8.40
2023-02-14T10:54:15.585Z,8.40
2023-02-14T10:56:46.696Z,8.40
2023-02-14T10:59:22.367Z,8.20
2023-02-14T11:01:50.732Z,8.30
2023-02-14T11:04:20.202Z,8.40
2023-02-14T11:06:49.481Z,8.60
2023-02-14T11:09:23.298Z,8.50
2023-02-14T11:11:52.689Z,8.50
2023-02-14T11:14:23.804Z,8.40
2023-02-14T11:16:51.413Z,8.40
2023-02-14T11:19:25.030Z,8.40
2023-02-14T11:21:53.836Z,8.10
2023-02-14T11:24:27.355Z,8.40
2023-02-14T11:26:57.028Z,8.30
2023-02-14T11:29:27.810Z,8.20
2023-02-14T11:34:33.392Z,8.30
2023-02-14T11:37:00.734Z,8.40
2023-02-14T11:39:30.386Z,8.50
2023-02-14T11:41:59.445Z,8.30
2023-02-14T11:44:29.793Z,8.20
2023-02-14T11:46:57.596Z,8.30
2023-02-14T11:49:32.151Z,7.90
2023-02-14T11:52:10.143Z,8.50
2023-02-14T11:54:38.938Z,8.20
2023-02-14T11:57:08.375Z,8.10
2023-02-14T11:59:40.571Z,8.10
2023-02-14T12:02:27.581Z,8.20
2023-02-14T12:04:58.500Z,8.30
2023-02-14T12:07:29.373Z,8.40
2023-02-14T12:10:25.209Z,8.40
2023-02-14T12:12:59.807Z,8.30
2023-02-14T12:15:33.727Z,8.30
2023-02-14T12:18:24.837Z,8.30
2023-02-14T12:20:58.029Z,8.50
2023-02-14T12:23:30.029Z,8.50
2023-02-14T12:26:01.018Z,8.50
2023-02-14T12:28:37.767Z,8.60
2023-02-14T12:31:10.748Z,8.60
2023-02-14T12:33:39.010Z,8.60
2023-02-14T12:36:15.951Z,8.50
2023-02-14T12:38:53.132Z,8.40
2023-02-14T12:41:34.029Z,11.00
2023-02-14T12:44:07.030Z,8.40
2023-02-14T12:46:54.633Z,8.20
2023-02-14T12:49:48.686Z,8.30
2023-02-14T12:52:34.699Z,8.40
2023-02-14T12:55:18.679Z,8.60
2023-02-14T12:57:53.843Z,8.60
2023-02-14T13:00:33.367Z,8.60
2023-02-14T13:03:33.159Z,8.50
2023-02-14T13:06:09.777Z,8.50
2023-02-14T13:09:00.438Z,8.20
2023-02-14T13:11:36.005Z,8.00
2023-02-14T13:14:09.577Z,7.90
2023-02-14T13:16:41.385Z,7.90
2023-02-14T13:19:18.957Z,7.00
2023-02-14T13:21:49.115Z,7.80
2023-02-14T13:24:22.536Z,7.70
2023-02-14T13:26:54.602Z,7.70
2023-02-14T13:29:24.512Z,8.30
2023-02-14T13:31:52.906Z,7.80
2023-02-14T13:34:28.434Z,8.00
2023-02-14T13:36:56.813Z,8.10
2023-02-14T13:39:32.926Z,8.10
2023-02-14T13:42:07.253Z,8.10
2023-02-14T13:44:45.445Z,8.00
2023-02-14T13:47:22.837Z,8.10
2023-02-14T13:49:54.677Z,8.10
2023-02-14T13:52:41.724Z,8.10
2023-02-14T13:55:15.805Z,8.20
2023-02-14T13:57:42.947Z,8.20
2023-02-14T14:00:36.147Z,8.30
2023-02-14T14:03:03.310Z,8.40
2023-02-14T14:05:57.991Z,7.90
2023-02-14T14:08:42.660Z,7.60
2023-02-14T14:11:58.976Z,7.50
2023-02-14T14:14:35.598Z,8.00
2023-02-14T14:17:05.141Z,7.50
2023-02-14T14:19:39.768Z,7.20
2023-02-14T14:22:09.350Z,7.80
2023-02-14T14:24:38.722Z,7.80
2023-02-14T14:27:13.811Z,8.10
2023-02-14T14:29:45.283Z,8.00
2023-02-14T14:32:18.492Z,8.20
2023-02-14T14:34:50.031Z,7.80
2023-02-14T14:37:19.892Z,7.80
2023-02-14T14:39:51.583Z,7.50
2023-02-14T14:42:19.136Z,7.70
2023-02-14T14:44:49.368Z,8.00
2023-02-14T14:47:19.433Z,8.00
2023-02-14T14:49:46.698Z,7.80
2023-02-14T14:52:32.704Z,7.50
2023-02-14T14:55:01.930Z,8.00
2023-02-14T14:57:28.689Z,7.40
2023-02-14T15:00:26.660Z,6.80
2023-02-14T15:02:59.256Z,7.50
2023-02-14T15:05:28.909Z,7.40
2023-02-14T15:07:57.094Z,7.50
2023-02-14T15:10:26.215Z,7.50
2023-02-14T15:13:13.830Z,7.40
2023-02-14T15:15:41.686Z,7.20
2023-02-14T15:18:11.524Z,7.30
2023-02-14T15:20:38.899Z,7.30
2023-02-14T15:23:05.857Z,7.60
2023-02-14T15:25:34.982Z,7.50
2023-02-14T15:30:34.090Z,7.40
2023-02-14T15:33:03.007Z,7.40
2023-02-14T15:35:32.010Z,7.20
2023-02-14T15:38:02.052Z,7.80
2023-02-14T15:40:31.204Z,7.90
2023-02-14T15:43:14.754Z,7.20
2023-02-14T15:45:43.582Z,7.20
2023-02-14T15:48:16.760Z,7.40
2023-02-14T15:50:46.305Z,7.40
2023-02-14T15:53:40.033Z,7.10
2023-02-14T15:56:09.193Z,7.20
2023-02-14T15:58:37.747Z,7.20
2023-02-14T16:01:05.579Z,7.10
2023-02-14T16:03:36.344Z,6.80
2023-02-14T16:06:04.344Z,7.30
2023-02-14T16:08:32.798Z,7.00
2023-02-14T16:11:02.396Z,7.30
2023-02-14T16:13:31.300Z,7.10
2023-02-14T16:15:59.804Z,7.00
2023-02-14T16:18:38.176Z,7.20
2023-02-14T16:21:16.283Z,7.00
2023-02-14T16:23:44.327Z,7.00
2023-02-14T16:26:11.563Z,6.90
2023-02-14T16:28:38.270Z,6.80
2023-02-14T16:31:09.661Z,6.90
2023-02-14T16:33:39.671Z,6.80
2023-02-14T16:36:13.480Z,6.80
2023-02-14T16:38:43.702Z,6.80
2023-02-14T16:41:17.610Z,6.80
2023-02-14T16:43:45.037Z,6.70
2023-02-14T16:46:13.058Z,6.80
2023-02-14T16:48:40.561Z,7.00
2023-02-14T16:51:09.208Z,6.70
2023-02-14T16:53:36.328Z,6.70
2023-02-14T16:56:03.073Z,6.70
2023-02-14T16:58:33.867Z,7.00
2023-02-14T17:01:00.883Z,7.10
2023-02-14T17:03:28.106Z,6.70
2023-02-14T17:05:57.067Z,6.70
2023-02-14T17:08:24.501Z,6.60
2023-02-14T17:10:51.720Z,6.70
2023-02-14T17:13:21.976Z,6.70
2023-02-14T17:15:49.652Z,6.70
2023-02-14T17:18:18.695Z,6.70
2023-02-14T17:20:45.655Z,6.60
2023-02-14T17:23:12.966Z,6.40
2023-02-14T17:25:40.040Z,6.70
2023-02-14T17:28:06.986Z,6.60
2023-02-14T17:30:33.765Z,6.20
2023-02-14T17:33:00.401Z,6.60
2023-02-14T17:35:27.160Z,6.60
2023-02-14T17:37:53.818Z,6.70
2023-02-14T17:40:21.412Z,6.50
2023-02-14T17:42:48.122Z,6.20
2023-02-14T17:45:14.792Z,6.50
2023-02-14T17:47:42.609Z,6.40
2023-02-14T17:50:09.831Z,6.90
2023-02-14T17:52:36.574Z,6.70
2023-02-14T17:55:03.764Z,6.50
2023-02-14T17:57:31.228Z,6.70
2023-02-14T17:59:58.168Z,6.50
2023-02-14T18:02:24.963Z,6.50
2023-02-14T18:04:52.078Z,6.50
2023-02-14T18:07:18.697Z,6.60
2023-02-14T18:09:45.412Z,6.70
2023-02-14T18:12:15.083Z,6.50
2023-02-14T18:14:42.760Z,6.60
2023-02-14T18:17:11.594Z,6.60
2023-02-14T18:19:38.432Z,6.60
2023-02-14T18:22:05.136Z,6.40
2023-02-14T18:24:31.807Z,6.80
2023-02-14T18:29:25.568Z,6.50
2023-02-14T18:31:53.018Z,6.70
2023-02-14T18:34:19.693Z,6.20
2023-02-14T18:36:46.341Z,6.10
2023-02-14T18:39:13.666Z,6.40
2023-02-14T18:41:40.330Z,5.50
2023-02-14T18:44:07.195Z,6.70
2023-02-14T18:46:35.526Z,6.60
2023-02-14T18:49:05.254Z,6.40
2023-02-14T18:51:34.554Z,5.60
2023-02-14T18:54:03.727Z,6.90
2023-02-14T18:56:33.360Z,6.90
2023-02-14T18:59:01.588Z,6.30
2023-02-14T19:01:30.850Z,6.40
2023-02-14T19:03:59.232Z,6.40
2023-02-14T19:06:28.638Z,6.40
2023-02-14T19:08:55.633Z,6.20
2023-02-14T19:11:23.968Z,6.70
2023-02-14T19:13:52.365Z,6.30
2023-02-14T19:16:20.843Z,6.20
2023-02-14T19:18:49.560Z,6.30
2023-02-14T19:21:19.134Z,6.30
2023-02-14T19:23:46.460Z,6.90
2023-02-14T19:26:14.901Z,6.40
2023-02-14T19:28:42.450Z,6.40
2023-02-14T19:31:09.540Z,6.20
2023-02-14T19:33:37.814Z,6.30
2023-02-14T19:36:06.701Z,6.40
2023-02-14T19:38:33.534Z,6.50
2023-02-14T19:41:01.188Z,6.30
2023-02-14T19:43:28.227Z,6.50
2023-02-14T19:45:54.962Z,6.40
2023-02-14T19:48:21.729Z,6.20
2023-02-14T19:50:48.585Z,6.30
2023-02-14T19:53:15.287Z,5.80
2023-02-14T19:55:41.995Z,6.40
2023-02-14T19:58:09.774Z,6.30
2023-02-14T20:00:37.282Z,6.40
2023-02-14T20:03:05.435Z,6.20
2023-02-14T20:05:32.166Z,6.30
2023-02-14T20:07:58.816Z,6.30
2023-02-14T20:10:25.550Z,6.30
2023-02-14T20:12:52.197Z,6.20
2023-02-14T20:15:19.755Z,6.20
2023-02-14T20:20:15.370Z,6.10
2023-02-14T20:22:42.098Z,6.40
2023-02-14T20:25:09.380Z,6.10
2023-02-14T20:27:36.268Z,6.20
2023-02-14T20:30:03.515Z,6.20
2023-02-14T20:32:32.080Z,6.10
2023-02-14T20:34:58.944Z,6.30
2023-02-14T20:37:25.692Z,6.20
2023-02-14T20:39:52.319Z,6.20
2023-02-14T20:42:19.070Z,6.20
2023-02-14T20:44:45.841Z,6.10
2023-02-14T20:47:13.460Z,6.20
2023-02-14T20:49:43.940Z,6.10
2023-02-14T20:52:11.279Z,6.30
2023-02-14T20:54:38.963Z,6.30
2023-02-14T20:57:05.589Z,5.90
2023-02-14T21:01:59.536Z,5.70
2023-02-14T21:04:27.256Z,6.50
2023-02-14T21:06:56.943Z,6.00
2023-02-14T21:09:24.047Z,5.70
2023-02-14T21:11:53.142Z,5.70
2023-02-14T21:14:20.252Z,6.10
2023-02-14T21:19:14.242Z,5.70
2023-02-14T21:21:41.048Z,5.80
2023-02-14T21:24:10.194Z,5.60
2023-02-14T21:26:37.117Z,5.80
2023-02-14T21:29:05.137Z,5.40
2023-02-14T21:34:00.859Z,5.90
2023-02-14T21:36:29.103Z,5.70
2023-02-14T21:38:57.562Z,5.70
2023-02-14T21:41:26.682Z,6.00
2023-02-14T21:43:55.641Z,5.70
2023-02-14T21:46:26.679Z,5.80
2023-02-14T21:49:11.624Z,5.90
2023-02-14T21:51:38.640Z,5.60
2023-02-14T21:54:05.938Z,5.90
2023-02-14T21:56:34.280Z,5.10
2023-02-14T21:59:00.977Z,5.10
2023-02-14T22:01:30.275Z,5.80
2023-02-14T22:03:57.880Z,6.10
2023-02-14T22:06:25.090Z,5.70
2023-02-14T22:08:53.098Z,5.90
2023-02-14T22:11:20.743Z,5.70
2023-02-14T22:13:48.150Z,5.70
2023-02-14T22:16:17.840Z,5.50
2023-02-14T22:18:46.614Z,5.90
2023-02-14T22:21:14.943Z,5.80
2023-02-14T22:23:41.945Z,5.50
2023-02-14T22:26:13.592Z,5.70
2023-02-14T22:28:41.459Z,6.10
2023-02-14T22:31:09.479Z,5.70
2023-02-14T22:33:37.883Z,5.80
2023-02-14T22:36:05.526Z,5.70
2023-02-14T22:38:33.217Z,5.90
2023-02-14T22:41:05.031Z,5.60
2023-02-14T22:43:31.707Z,5.60
2023-02-14T22:46:03.235Z,5.50
2023-02-14T22:48:31.802Z,5.50
2023-02-14T22:51:05.788Z,5.50
2023-02-14T22:53:32.508Z,5.30
2023-02-14T22:56:08.306Z,5.60
2023-02-14T22:58:35.026Z,5.40
2023-02-14T23:01:01.745Z,5.40
2023-02-14T23:03:28.602Z,5.50
2023-02-14T23:05:56.927Z,5.40
2023-02-14T23:08:23.737Z,5.10
2023-02-14T23:10:50.395Z,5.10
2023-02-14T23:13:35.186Z,5.30
2023-02-14T23:16:20.047Z,5.10
2023-02-14T23:19:04.824Z,5.20
2023-02-14T23:21:50.222Z,5.10
2023-02-14T23:24:16.822Z,5.20
2023-02-14T23:26:43.445Z,5.40
2023-02-14T23:29:10.227Z,5.40
2023-02-14T23:31:37.053Z,5.30
2023-02-14T23:34:03.976Z,5.00
2023-02-14T23:36:31.330Z,5.00
2023-02-14T23:38:58.090Z,5.10
2023-02-14T23:41:48.043Z,5.00
2023-02-14T23:44:15.967Z,5.10
2023-02-14T23:49:10.218Z,4.80
2023-02-14T23:51:37.730Z,4.90
2023-02-14T23:54:34.254Z,4.70
2023-02-14T23:57:46.604Z,4.70
